sensor_id;sensor_type;location;lat;lon;timestamp;P1;durP1;ratioP1;P2;durP2;ratioP2
65210;SDS011;51794;52.758;55.792;2022-10-13T00:01:51;3.88;;;2.67;;
65210;SDS011;51794;52.758;55.792;2022-10-13T00:04:17;3.55;;;2.28;;
65210;SDS011;51794;52.758;55.792;2022-10-13T00:06:43;6.13;;;2.80;;
65210;SDS011;51794;52.758;55.792;2022-10-13T00:09:08;5.95;;;2.60;;
65210;SDS011;51794;52.758;55.792;2022-10-13T00:11:34;5.53;;;2.65;;
65210;SDS011;51794;52.758;55.792;2022-10-13T00:14:01;4.03;;;2.40;;
65210;SDS011;51794;52.758;55.792;2022-10-13T00:16:28;3.85;;;2.33;;
65210;SDS011;51794;52.758;55.792;2022-10-13T00:18:54;5.32;;;2.50;;
65210;SDS011;51794;52.758;55.792;2022-10-13T00:21:21;4.45;;;2.65;;
65210;SDS011;51794;52.758;55.792;2022-10-13T00:23:48;5.22;;;2.42;;
65210;SDS011;51794;52.758;55.792;2022-10-13T00:26:14;2.78;;;2.00;;
65210;SDS011;51794;52.758;55.792;2022-10-13T00:28:41;6.63;;;2.70;;
65210;SDS011;51794;52.758;55.792;2022-10-13T00:31:20;5.05;;;2.40;;
65210;SDS011;51794;52.758;55.792;2022-10-13T00:33:46;6.10;;;2.65;;
65210;SDS011;51794;52.758;55.792;2022-10-13T00:36:13;4.05;;;2.20;;
65210;SDS011;51794;52.758;55.792;2022-10-13T00:38:39;5.35;;;2.63;;
65210;SDS011;51794;52.758;55.792;2022-10-13T00:41:05;4.28;;;2.58;;
65210;SDS011;51794;52.758;55.792;2022-10-13T00:46:13;4.07;;;2.70;;
65210;SDS011;51794;52.758;55.792;2022-10-13T00:48:39;6.45;;;2.40;;
65210;SDS011;51794;52.758;55.792;2022-10-13T00:51:06;6.82;;;2.30;;
65210;SDS011;51794;52.758;55.792;2022-10-13T00:53:33;5.13;;;2.30;;
65210;SDS011;51794;52.758;55.792;2022-10-13T00:55:59;3.97;;;2.40;;
65210;SDS011;51794;52.758;55.792;2022-10-13T00:58:26;3.33;;;2.22;;
65210;SDS011;51794;52.758;55.792;2022-10-13T01:00:57;4.20;;;2.70;;
65210;SDS011;51794;52.758;55.792;2022-10-13T01:03:23;3.05;;;2.45;;
65210;SDS011;51794;52.758;55.792;2022-10-13T01:05:50;9.05;;;2.90;;
65210;SDS011;51794;52.758;55.792;2022-10-13T01:08:17;4.82;;;2.47;;
65210;SDS011;51794;52.758;55.792;2022-10-13T01:28:58;5.30;;;2.60;;
65210;SDS011;51794;52.758;55.792;2022-10-13T01:32:10;4.55;;;2.55;;
65210;SDS011;51794;52.758;55.792;2022-10-13T01:41:45;5.15;;;2.58;;
65210;SDS011;51794;52.758;55.792;2022-10-13T01:44:16;4.10;;;2.55;;
65210;SDS011;51794;52.758;55.792;2022-10-13T01:46:44;5.07;;;2.75;;
65210;SDS011;51794;52.758;55.792;2022-10-13T01:49:11;4.75;;;2.60;;
65210;SDS011;51794;52.758;55.792;2022-10-13T01:51:38;4.88;;;2.90;;
65210;SDS011;51794;52.758;55.792;2022-10-13T01:54:05;4.32;;;2.60;;
65210;SDS011;51794;52.758;55.792;2022-10-13T01:56:31;6.28;;;2.63;;
65210;SDS011;51794;52.758;55.792;2022-10-13T01:58:58;4.90;;;2.92;;
65210;SDS011;51794;52.758;55.792;2022-10-13T02:04:09;4.70;;;3.00;;
65210;SDS011;51794;52.758;55.792;2022-10-13T02:12:09;8.23;;;3.67;;
65210;SDS011;51794;52.758;55.792;2022-10-13T02:14:37;10.30;;;3.40;;
65210;SDS011;51794;52.758;55.792;2022-10-13T02:17:04;5.18;;;3.15;;
65210;SDS011;51794;52.758;55.792;2022-10-13T02:19:34;6.40;;;3.22;;
65210;SDS011;51794;52.758;55.792;2022-10-13T02:22:01;6.47;;;3.83;;
65210;SDS011;51794;52.758;55.792;2022-10-13T02:24:27;5.38;;;3.17;;
65210;SDS011;51794;52.758;55.792;2022-10-13T02:26:53;5.55;;;3.47;;
65210;SDS011;51794;52.758;55.792;2022-10-13T02:29:20;8.35;;;3.35;;
65210;SDS011;51794;52.758;55.792;2022-10-13T02:31:46;9.18;;;3.70;;
65210;SDS011;51794;52.758;55.792;2022-10-13T02:34:12;5.70;;;3.45;;
65210;SDS011;51794;52.758;55.792;2022-10-13T02:36:38;6.95;;;3.40;;
65210;SDS011;51794;52.758;55.792;2022-10-13T02:39:05;5.97;;;2.83;;
65210;SDS011;51794;52.758;55.792;2022-10-13T02:41:31;3.95;;;3.00;;
65210;SDS011;51794;52.758;55.792;2022-10-13T02:43:57;6.47;;;3.30;;
65210;SDS011;51794;52.758;55.792;2022-10-13T02:46:23;4.97;;;3.00;;
65210;SDS011;51794;52.758;55.792;2022-10-13T02:48:49;5.32;;;2.85;;
65210;SDS011;51794;52.758;55.792;2022-10-13T02:51:14;6.38;;;2.67;;
65210;SDS011;51794;52.758;55.792;2022-10-13T02:53:40;4.25;;;2.60;;
65210;SDS011;51794;52.758;55.792;2022-10-13T02:56:06;4.13;;;2.60;;
65210;SDS011;51794;52.758;55.792;2022-10-13T02:58:32;3.95;;;2.95;;
65210;SDS011;51794;52.758;55.792;2022-10-13T03:01:05;3.63;;;2.53;;
65210;SDS011;51794;52.758;55.792;2022-10-13T03:03:31;4.65;;;2.85;;
65210;SDS011;51794;52.758;55.792;2022-10-13T03:05:57;3.50;;;2.70;;
65210;SDS011;51794;52.758;55.792;2022-10-13T03:08:22;2.42;;;2.17;;
65210;SDS011;51794;52.758;55.792;2022-10-13T03:10:49;4.28;;;2.58;;
65210;SDS011;51794;52.758;55.792;2022-10-13T03:13:15;4.45;;;2.70;;
65210;SDS011;51794;52.758;55.792;2022-10-13T03:15:41;3.90;;;2.97;;
65210;SDS011;51794;52.758;55.792;2022-10-13T03:18:06;2.85;;;2.00;;
65210;SDS011;51794;52.758;55.792;2022-10-13T03:20:32;3.85;;;2.30;;
65210;SDS011;51794;52.758;55.792;2022-10-13T03:22:58;2.30;;;1.90;;
65210;SDS011;51794;52.758;55.792;2022-10-13T03:25:24;2.85;;;1.90;;
65210;SDS011;51794;52.758;55.792;2022-10-13T03:27:49;2.92;;;1.83;;
65210;SDS011;51794;52.758;55.792;2022-10-13T03:30:15;2.75;;;2.10;;
65210;SDS011;51794;52.758;55.792;2022-10-13T03:32:41;2.38;;;1.90;;
65210;SDS011;51794;52.758;55.792;2022-10-13T03:35:07;2.00;;;1.70;;
65210;SDS011;51794;52.758;55.792;2022-10-13T03:37:33;3.25;;;2.05;;
65210;SDS011;51794;52.758;55.792;2022-10-13T03:39:58;3.67;;;2.00;;
65210;SDS011;51794;52.758;55.792;2022-10-13T03:42:24;2.88;;;1.90;;
65210;SDS011;51794;52.758;55.792;2022-10-13T03:44:51;2.80;;;2.03;;
65210;SDS011;51794;52.758;55.792;2022-10-13T03:47:16;2.10;;;1.73;;
65210;SDS011;51794;52.758;55.792;2022-10-13T03:49:42;2.53;;;1.90;;
65210;SDS011;51794;52.758;55.792;2022-10-13T03:52:08;1.95;;;1.70;;
65210;SDS011;51794;52.758;55.792;2022-10-13T03:54:34;2.00;;;1.75;;
65210;SDS011;51794;52.758;55.792;2022-10-13T03:57:00;4.82;;;2.10;;
65210;SDS011;51794;52.758;55.792;2022-10-13T03:59:25;3.53;;;2.00;;
65210;SDS011;51794;52.758;55.792;2022-10-13T04:01:53;3.10;;;1.63;;
65210;SDS011;51794;52.758;55.792;2022-10-13T04:04:19;2.78;;;1.70;;
65210;SDS011;51794;52.758;55.792;2022-10-13T04:06:45;1.67;;;1.58;;
65210;SDS011;51794;52.758;55.792;2022-10-13T04:09:11;2.10;;;1.90;;
65210;SDS011;51794;52.758;55.792;2022-10-13T04:11:37;3.38;;;1.75;;
65210;SDS011;51794;52.758;55.792;2022-10-13T04:14:03;1.90;;;1.52;;
65210;SDS011;51794;52.758;55.792;2022-10-13T04:16:29;1.60;;;1.23;;
65210;SDS011;51794;52.758;55.792;2022-10-13T04:19:03;1.35;;;1.25;;
65210;SDS011;51794;52.758;55.792;2022-10-13T04:21:29;2.53;;;1.50;;
65210;SDS011;51794;52.758;55.792;2022-10-13T04:23:56;1.45;;;1.25;;
65210;SDS011;51794;52.758;55.792;2022-10-13T04:26:23;1.88;;;1.35;;
65210;SDS011;51794;52.758;55.792;2022-10-13T04:28:50;1.52;;;1.30;;
65210;SDS011;51794;52.758;55.792;2022-10-13T04:31:16;2.00;;;1.30;;
65210;SDS011;51794;52.758;55.792;2022-10-13T04:33:42;2.47;;;1.50;;
65210;SDS011;51794;52.758;55.792;2022-10-13T04:36:09;1.48;;;1.38;;
65210;SDS011;51794;52.758;55.792;2022-10-13T04:38:35;2.47;;;1.55;;
65210;SDS011;51794;52.758;55.792;2022-10-13T04:41:05;3.28;;;1.50;;
65210;SDS011;51794;52.758;55.792;2022-10-13T04:43:32;4.53;;;1.50;;
65210;SDS011;51794;52.758;55.792;2022-10-13T04:48:26;2.78;;;1.50;;
65210;SDS011;51794;52.758;55.792;2022-10-13T04:51:03;2.97;;;1.58;;
65210;SDS011;51794;52.758;55.792;2022-10-13T04:53:29;2.20;;;1.38;;
65210;SDS011;51794;52.758;55.792;2022-10-13T04:55:55;1.58;;;1.48;;
65210;SDS011;51794;52.758;55.792;2022-10-13T04:58:21;3.72;;;1.70;;
65210;SDS011;51794;52.758;55.792;2022-10-13T05:00:47;3.75;;;1.48;;
65210;SDS011;51794;52.758;55.792;2022-10-13T05:03:12;2.22;;;1.77;;
65210;SDS011;51794;52.758;55.792;2022-10-13T05:05:38;3.42;;;1.40;;
65210;SDS011;51794;52.758;55.792;2022-10-13T05:08:04;1.77;;;1.63;;
65210;SDS011;51794;52.758;55.792;2022-10-13T05:10:30;7.05;;;2.03;;
65210;SDS011;51794;52.758;55.792;2022-10-13T05:12:56;2.90;;;1.90;;
65210;SDS011;51794;52.758;55.792;2022-10-13T05:15:22;2.60;;;1.92;;
65210;SDS011;51794;52.758;55.792;2022-10-13T05:17:48;2.53;;;1.90;;
65210;SDS011;51794;52.758;55.792;2022-10-13T05:20:14;4.07;;;2.20;;
65210;SDS011;51794;52.758;55.792;2022-10-13T05:22:41;2.38;;;2.10;;
65210;SDS011;51794;52.758;55.792;2022-10-13T05:25:06;3.40;;;2.15;;
65210;SDS011;51794;52.758;55.792;2022-10-13T05:27:32;3.85;;;2.47;;
65210;SDS011;51794;52.758;55.792;2022-10-13T05:29:58;2.20;;;2.00;;
65210;SDS011;51794;52.758;55.792;2022-10-13T05:32:24;4.30;;;2.60;;
65210;SDS011;51794;52.758;55.792;2022-10-13T05:34:49;3.97;;;2.50;;
65210;SDS011;51794;52.758;55.792;2022-10-13T05:37:15;3.47;;;2.45;;
65210;SDS011;51794;52.758;55.792;2022-10-13T05:39:42;4.35;;;2.60;;
65210;SDS011;51794;52.758;55.792;2022-10-13T05:42:08;2.78;;;2.30;;
65210;SDS011;51794;52.758;55.792;2022-10-13T05:44:34;2.40;;;2.20;;
65210;SDS011;51794;52.758;55.792;2022-10-13T05:47:01;2.70;;;2.45;;
65210;SDS011;51794;52.758;55.792;2022-10-13T05:49:26;3.13;;;2.63;;
65210;SDS011;51794;52.758;55.792;2022-10-13T05:51:53;3.00;;;2.53;;
65210;SDS011;51794;52.758;55.792;2022-10-13T05:54:33;3.38;;;2.30;;
65210;SDS011;51794;52.758;55.792;2022-10-13T05:57:03;3.55;;;2.30;;
65210;SDS011;51794;52.758;55.792;2022-10-13T05:59:31;3.47;;;2.40;;
65210;SDS011;51794;52.758;55.792;2022-10-13T06:01:59;2.83;;;2.50;;
65210;SDS011;51794;52.758;55.792;2022-10-13T06:04:28;2.88;;;2.50;;
65210;SDS011;51794;52.758;55.792;2022-10-13T06:06:54;4.15;;;2.72;;
65210;SDS011;51794;52.758;55.792;2022-10-13T06:09:20;3.70;;;2.53;;
65210;SDS011;51794;52.758;55.792;2022-10-13T06:11:46;2.42;;;2.22;;
65210;SDS011;51794;52.758;55.792;2022-10-13T06:14:13;3.20;;;2.90;;
65210;SDS011;51794;52.758;55.792;2022-10-13T06:16:38;3.92;;;3.20;;
65210;SDS011;51794;52.758;55.792;2022-10-13T06:19:05;3.80;;;3.38;;
65210;SDS011;51794;52.758;55.792;2022-10-13T06:21:33;4.05;;;3.30;;
65210;SDS011;51794;52.758;55.792;2022-10-13T06:23:58;3.40;;;3.08;;
65210;SDS011;51794;52.758;55.792;2022-10-13T06:26:25;5.78;;;3.78;;
65210;SDS011;51794;52.758;55.792;2022-10-13T06:28:51;3.85;;;3.55;;
65210;SDS011;51794;52.758;55.792;2022-10-13T06:31:17;4.15;;;3.65;;
65210;SDS011;51794;52.758;55.792;2022-10-13T06:33:42;5.20;;;4.70;;
65210;SDS011;51794;52.758;55.792;2022-10-13T06:36:09;6.10;;;5.47;;
65210;SDS011;51794;52.758;55.792;2022-10-13T06:38:35;6.72;;;6.00;;
65210;SDS011;51794;52.758;55.792;2022-10-13T06:41:01;9.20;;;6.78;;
65210;SDS011;51794;52.758;55.792;2022-10-13T06:43:27;8.38;;;7.03;;
65210;SDS011;51794;52.758;55.792;2022-10-13T06:45:56;7.65;;;6.30;;
65210;SDS011;51794;52.758;55.792;2022-10-13T06:48:22;7.88;;;6.60;;
65210;SDS011;51794;52.758;55.792;2022-10-13T06:50:48;7.57;;;6.78;;
65210;SDS011;51794;52.758;55.792;2022-10-13T06:53:13;9.45;;;8.00;;
65210;SDS011;51794;52.758;55.792;2022-10-13T06:55:39;7.97;;;6.93;;
65210;SDS011;51794;52.758;55.792;2022-10-13T06:58:08;8.00;;;6.57;;
65210;SDS011;51794;52.758;55.792;2022-10-13T07:00:34;6.78;;;6.07;;
65210;SDS011;51794;52.758;55.792;2022-10-13T07:02:59;6.65;;;5.90;;
65210;SDS011;51794;52.758;55.792;2022-10-13T07:05:25;5.65;;;4.97;;
65210;SDS011;51794;52.758;55.792;2022-10-13T07:07:51;9.48;;;6.30;;
65210;SDS011;51794;52.758;55.792;2022-10-13T07:10:18;6.80;;;5.38;;
65210;SDS011;51794;52.758;55.792;2022-10-13T07:12:44;5.78;;;4.55;;
65210;SDS011;51794;52.758;55.792;2022-10-13T07:15:10;6.10;;;4.65;;
65210;SDS011;51794;52.758;55.792;2022-10-13T07:17:36;4.60;;;4.15;;
65210;SDS011;51794;52.758;55.792;2022-10-13T07:20:02;4.60;;;4.20;;
65210;SDS011;51794;52.758;55.792;2022-10-13T07:22:29;4.75;;;4.03;;
65210;SDS011;51794;52.758;55.792;2022-10-13T07:24:55;4.68;;;4.22;;
65210;SDS011;51794;52.758;55.792;2022-10-13T07:27:21;4.63;;;4.22;;
65210;SDS011;51794;52.758;55.792;2022-10-13T07:29:47;4.50;;;4.10;;
65210;SDS011;51794;52.758;55.792;2022-10-13T07:32:12;5.07;;;4.60;;
65210;SDS011;51794;52.758;55.792;2022-10-13T07:34:38;4.90;;;4.50;;
65210;SDS011;51794;52.758;55.792;2022-10-13T07:37:04;4.80;;;4.32;;
65210;SDS011;51794;52.758;55.792;2022-10-13T07:39:30;5.13;;;4.32;;
65210;SDS011;51794;52.758;55.792;2022-10-13T07:41:55;5.10;;;4.63;;
65210;SDS011;51794;52.758;55.792;2022-10-13T07:44:21;4.85;;;4.35;;
65210;SDS011;51794;52.758;55.792;2022-10-13T07:46:47;4.53;;;4.03;;
65210;SDS011;51794;52.758;55.792;2022-10-13T07:49:13;4.30;;;3.90;;
65210;SDS011;51794;52.758;55.792;2022-10-13T07:51:38;4.25;;;3.85;;
65210;SDS011;51794;52.758;55.792;2022-10-13T07:54:04;5.18;;;4.68;;
65210;SDS011;51794;52.758;55.792;2022-10-13T07:56:30;4.80;;;4.38;;
65210;SDS011;51794;52.758;55.792;2022-10-13T07:58:58;4.40;;;4.00;;
65210;SDS011;51794;52.758;55.792;2022-10-13T08:01:26;5.18;;;4.70;;
65210;SDS011;51794;52.758;55.792;2022-10-13T08:03:53;5.10;;;4.60;;
65210;SDS011;51794;52.758;55.792;2022-10-13T08:06:21;4.68;;;4.28;;
65210;SDS011;51794;52.758;55.792;2022-10-13T08:08:47;5.05;;;4.47;;
65210;SDS011;51794;52.758;55.792;2022-10-13T08:11:13;4.88;;;4.38;;
65210;SDS011;51794;52.758;55.792;2022-10-13T08:13:39;7.65;;;4.57;;
65210;SDS011;51794;52.758;55.792;2022-10-13T08:16:05;4.95;;;3.83;;
65210;SDS011;51794;52.758;55.792;2022-10-13T08:18:31;4.63;;;4.20;;
65210;SDS011;51794;52.758;55.792;2022-10-13T08:21:00;4.47;;;4.07;;
65210;SDS011;51794;52.758;55.792;2022-10-13T08:23:26;4.93;;;4.50;;
65210;SDS011;51794;52.758;55.792;2022-10-13T08:25:52;5.18;;;4.70;;
65210;SDS011;51794;52.758;55.792;2022-10-13T08:28:19;5.43;;;4.90;;
65210;SDS011;51794;52.758;55.792;2022-10-13T08:30:45;5.47;;;4.72;;
65210;SDS011;51794;52.758;55.792;2022-10-13T08:33:11;5.65;;;4.95;;
65210;SDS011;51794;52.758;55.792;2022-10-13T08:35:37;5.47;;;4.97;;
65210;SDS011;51794;52.758;55.792;2022-10-13T08:38:03;5.95;;;4.70;;
65210;SDS011;51794;52.758;55.792;2022-10-13T08:40:29;5.20;;;4.70;;
65210;SDS011;51794;52.758;55.792;2022-10-13T08:42:55;5.10;;;4.70;;
65210;SDS011;51794;52.758;55.792;2022-10-13T08:45:22;5.65;;;4.15;;
65210;SDS011;51794;52.758;55.792;2022-10-13T08:47:55;5.05;;;4.50;;
65210;SDS011;51794;52.758;55.792;2022-10-13T08:50:26;4.47;;;4.07;;
65210;SDS011;51794;52.758;55.792;2022-10-13T08:52:57;4.60;;;4.13;;
65210;SDS011;51794;52.758;55.792;2022-10-13T08:55:29;4.90;;;4.50;;
65210;SDS011;51794;52.758;55.792;2022-10-13T08:57:56;4.88;;;4.43;;
65210;SDS011;51794;52.758;55.792;2022-10-13T09:00:22;5.10;;;4.60;;
65210;SDS011;51794;52.758;55.792;2022-10-13T09:02:48;4.82;;;4.20;;
65210;SDS011;51794;52.758;55.792;2022-10-13T09:05:18;4.95;;;4.00;;
65210;SDS011;51794;52.758;55.792;2022-10-13T09:07:46;4.40;;;4.00;;
65210;SDS011;51794;52.758;55.792;2022-10-13T09:10:13;4.47;;;3.65;;
65210;SDS011;51794;52.758;55.792;2022-10-13T09:12:39;4.35;;;3.47;;
65210;SDS011;51794;52.758;55.792;2022-10-13T09:15:08;3.95;;;3.50;;
65210;SDS011;51794;52.758;55.792;2022-10-13T09:17:34;3.70;;;3.15;;
65210;SDS011;51794;52.758;55.792;2022-10-13T09:22:42;3.55;;;2.60;;
65210;SDS011;51794;52.758;55.792;2022-10-13T09:27:53;2.88;;;2.67;;
65210;SDS011;51794;52.758;55.792;2022-10-13T09:35:34;2.50;;;2.30;;
65210;SDS011;51794;52.758;55.792;2022-10-13T09:38:02;2.30;;;2.10;;
65210;SDS011;51794;52.758;55.792;2022-10-13T09:40:32;2.50;;;2.30;;
65210;SDS011;51794;52.758;55.792;2022-10-13T09:43:16;2.17;;;2.08;;
65210;SDS011;51794;52.758;55.792;2022-10-13T09:45:44;2.60;;;1.85;;
65210;SDS011;51794;52.758;55.792;2022-10-13T09:48:16;3.65;;;2.20;;
65210;SDS011;51794;52.758;55.792;2022-10-13T09:50:46;2.28;;;2.00;;
65210;SDS011;51794;52.758;55.792;2022-10-13T09:56:38;2.70;;;2.50;;
65210;SDS011;51794;52.758;55.792;2022-10-13T09:58:38;3.50;;;3.05;;
65210;SDS011;51794;52.758;55.792;2022-10-13T10:01:08;3.20;;;2.90;;
65210;SDS011;51794;52.758;55.792;2022-10-13T10:03:34;3.15;;;2.92;;
65210;SDS011;51794;52.758;55.792;2022-10-13T10:06:05;3.33;;;2.80;;
65210;SDS011;51794;52.758;55.792;2022-10-13T10:11:02;2.88;;;2.67;;
65210;SDS011;51794;52.758;55.792;2022-10-13T10:13:29;3.45;;;3.15;;
65210;SDS011;51794;52.758;55.792;2022-10-13T10:16:04;3.72;;;2.90;;
65210;SDS011;51794;52.758;55.792;2022-10-13T10:18:35;4.68;;;3.20;;
65210;SDS011;51794;52.758;55.792;2022-10-13T10:21:04;3.00;;;2.80;;
65210;SDS011;51794;52.758;55.792;2022-10-13T10:23:50;3.00;;;2.80;;
65210;SDS011;51794;52.758;55.792;2022-10-13T10:26:23;3.10;;;2.80;;
65210;SDS011;51794;52.758;55.792;2022-10-13T10:44:49;1.75;;;1.65;;
65210;SDS011;51794;52.758;55.792;2022-10-13T10:47:23;2.25;;;2.05;;
65210;SDS011;51794;52.758;55.792;2022-10-13T10:49:51;2.15;;;2.00;;
65210;SDS011;51794;52.758;55.792;2022-10-13T10:52:25;2.15;;;1.95;;
65210;SDS011;51794;52.758;55.792;2022-10-13T10:55:10;2.80;;;2.08;;
65210;SDS011;51794;52.758;55.792;2022-10-13T11:00:16;2.40;;;2.20;;
65210;SDS011;51794;52.758;55.792;2022-10-13T11:05:08;3.95;;;2.40;;
65210;SDS011;51794;52.758;55.792;2022-10-13T11:15:56;2.63;;;2.42;;
65210;SDS011;51794;52.758;55.792;2022-10-13T11:17:58;2.58;;;2.38;;
65210;SDS011;51794;52.758;55.792;2022-10-13T11:27:53;2.60;;;2.22;;
65210;SDS011;51794;52.758;55.792;2022-10-13T11:33:30;2.53;;;2.33;;
65210;SDS011;51794;52.758;55.792;2022-10-13T11:35:52;2.30;;;2.10;;
65210;SDS011;51794;52.758;55.792;2022-10-13T11:38:28;2.03;;;1.92;;
65210;SDS011;51794;52.758;55.792;2022-10-13T11:41:34;3.10;;;2.10;;
65210;SDS011;51794;52.758;55.792;2022-10-13T11:46:20;2.42;;;2.22;;
65210;SDS011;51794;52.758;55.792;2022-10-13T11:54:21;1.70;;;1.60;;
65210;SDS011;51794;52.758;55.792;2022-10-13T11:56:49;2.45;;;1.98;;
65210;SDS011;51794;52.758;55.792;2022-10-13T11:59:26;2.50;;;1.92;;
65210;SDS011;51794;52.758;55.792;2022-10-13T12:01:53;2.40;;;2.17;;
65210;SDS011;51794;52.758;55.792;2022-10-13T12:04:20;2.78;;;1.83;;
65210;SDS011;51794;52.758;55.792;2022-10-13T12:06:47;1.90;;;1.80;;
65210;SDS011;51794;52.758;55.792;2022-10-13T12:09:18;2.35;;;2.15;;
65210;SDS011;51794;52.758;55.792;2022-10-13T12:11:44;3.10;;;2.63;;
65210;SDS011;51794;52.758;55.792;2022-10-13T12:14:26;2.65;;;2.40;;
65210;SDS011;51794;52.758;55.792;2022-10-13T12:16:55;2.75;;;2.55;;
65210;SDS011;51794;52.758;55.792;2022-10-13T12:19:22;2.67;;;2.42;;
65210;SDS011;51794;52.758;55.792;2022-10-13T12:21:50;3.22;;;2.50;;
65210;SDS011;51794;52.758;55.792;2022-10-13T12:24:16;2.70;;;2.50;;
65210;SDS011;51794;52.758;55.792;2022-10-13T12:26:42;2.88;;;2.60;;
65210;SDS011;51794;52.758;55.792;2022-10-13T12:29:12;3.53;;;2.58;;
65210;SDS011;51794;52.758;55.792;2022-10-13T12:31:39;4.05;;;3.65;;
65210;SDS011;51794;52.758;55.792;2022-10-13T12:36:43;3.15;;;2.85;;
65210;SDS011;51794;52.758;55.792;2022-10-13T12:39:11;2.80;;;2.60;;
65210;SDS011;51794;52.758;55.792;2022-10-13T12:41:40;2.72;;;2.53;;
65210;SDS011;51794;52.758;55.792;2022-10-13T12:44:08;2.80;;;2.60;;
65210;SDS011;51794;52.758;55.792;2022-10-13T12:46:40;3.25;;;2.90;;
65210;SDS011;51794;52.758;55.792;2022-10-13T12:49:23;3.03;;;2.78;;
65210;SDS011;51794;52.758;55.792;2022-10-13T12:51:53;3.05;;;2.60;;
65210;SDS011;51794;52.758;55.792;2022-10-13T12:54:26;3.25;;;2.92;;
65210;SDS011;51794;52.758;55.792;2022-10-13T12:56:57;3.03;;;2.80;;
65210;SDS011;51794;52.758;55.792;2022-10-13T12:59:24;3.47;;;3.17;;
65210;SDS011;51794;52.758;55.792;2022-10-13T13:01:55;3.00;;;2.80;;
65210;SDS011;51794;52.758;55.792;2022-10-13T13:06:57;2.50;;;2.30;;
65210;SDS011;51794;52.758;55.792;2022-10-13T13:09:24;2.80;;;2.50;;
65210;SDS011;51794;52.758;55.792;2022-10-13T13:12:04;2.50;;;2.30;;
65210;SDS011;51794;52.758;55.792;2022-10-13T13:14:37;2.50;;;2.25;;
65210;SDS011;51794;52.758;55.792;2022-10-13T13:17:05;2.30;;;2.10;;
65210;SDS011;51794;52.758;55.792;2022-10-13T13:19:32;2.40;;;2.20;;
65210;SDS011;51794;52.758;55.792;2022-10-13T13:21:58;2.22;;;2.05;;
65210;SDS011;51794;52.758;55.792;2022-10-13T13:24:23;2.20;;;2.00;;
65210;SDS011;51794;52.758;55.792;2022-10-13T13:26:49;1.80;;;1.70;;
65210;SDS011;51794;52.758;55.792;2022-10-13T13:29:15;2.63;;;2.33;;
65210;SDS011;51794;52.758;55.792;2022-10-13T13:31:41;2.15;;;1.80;;
65210;SDS011;51794;52.758;55.792;2022-10-13T13:34:07;2.65;;;1.85;;
65210;SDS011;51794;52.758;55.792;2022-10-13T13:36:33;2.22;;;1.98;;
65210;SDS011;51794;52.758;55.792;2022-10-13T13:38:58;1.92;;;1.80;;
65210;SDS011;51794;52.758;55.792;2022-10-13T13:41:24;1.98;;;1.70;;
65210;SDS011;51794;52.758;55.792;2022-10-13T13:43:52;1.85;;;1.70;;
65210;SDS011;51794;52.758;55.792;2022-10-13T13:46:19;2.42;;;1.88;;
65210;SDS011;51794;52.758;55.792;2022-10-13T13:48:46;2.63;;;1.70;;
65210;SDS011;51794;52.758;55.792;2022-10-13T13:51:11;2.60;;;1.73;;
65210;SDS011;51794;52.758;55.792;2022-10-13T13:53:37;2.25;;;1.42;;
65210;SDS011;51794;52.758;55.792;2022-10-13T13:56:03;1.83;;;1.52;;
65210;SDS011;51794;52.758;55.792;2022-10-13T13:58:29;2.20;;;1.63;;
65210;SDS011;51794;52.758;55.792;2022-10-13T14:00:55;2.22;;;1.38;;
65210;SDS011;51794;52.758;55.792;2022-10-13T14:03:21;1.45;;;1.35;;
65210;SDS011;51794;52.758;55.792;2022-10-13T14:05:46;3.05;;;1.45;;
65210;SDS011;51794;52.758;55.792;2022-10-13T14:08:12;1.30;;;1.20;;
65210;SDS011;51794;52.758;55.792;2022-10-13T14:10:38;1.70;;;1.52;;
65210;SDS011;51794;52.758;55.792;2022-10-13T14:13:05;3.05;;;1.50;;
65210;SDS011;51794;52.758;55.792;2022-10-13T14:15:31;2.63;;;1.40;;
65210;SDS011;51794;52.758;55.792;2022-10-13T14:17:57;3.05;;;1.70;;
65210;SDS011;51794;52.758;55.792;2022-10-13T14:20:23;2.42;;;1.75;;
65210;SDS011;51794;52.758;55.792;2022-10-13T14:22:49;1.73;;;1.60;;
65210;SDS011;51794;52.758;55.792;2022-10-13T14:25:15;2.22;;;1.80;;
65210;SDS011;51794;52.758;55.792;2022-10-13T14:27:40;2.70;;;1.80;;
65210;SDS011;51794;52.758;55.792;2022-10-13T14:30:07;2.65;;;1.83;;
65210;SDS011;51794;52.758;55.792;2022-10-13T14:32:35;2.03;;;1.60;;
65210;SDS011;51794;52.758;55.792;2022-10-13T14:35:01;2.97;;;1.80;;
65210;SDS011;51794;52.758;55.792;2022-10-13T14:37:29;2.00;;;1.75;;
65210;SDS011;51794;52.758;55.792;2022-10-13T14:39:55;1.80;;;1.60;;
65210;SDS011;51794;52.758;55.792;2022-10-13T14:42:21;2.60;;;1.67;;
65210;SDS011;51794;52.758;55.792;2022-10-13T14:44:46;2.20;;;1.60;;
65210;SDS011;51794;52.758;55.792;2022-10-13T14:47:12;3.78;;;1.85;;
65210;SDS011;51794;52.758;55.792;2022-10-13T14:49:38;1.98;;;1.77;;
65210;SDS011;51794;52.758;55.792;2022-10-13T14:52:04;2.95;;;1.75;;
65210;SDS011;51794;52.758;55.792;2022-10-13T14:54:30;2.45;;;1.77;;
65210;SDS011;51794;52.758;55.792;2022-10-13T14:56:56;2.20;;;2.00;;
65210;SDS011;51794;52.758;55.792;2022-10-13T14:59:25;3.58;;;2.40;;
65210;SDS011;51794;52.758;55.792;2022-10-13T15:01:51;2.38;;;2.17;;
65210;SDS011;51794;52.758;55.792;2022-10-13T15:04:17;2.67;;;2.47;;
65210;SDS011;51794;52.758;55.792;2022-10-13T15:06:43;2.90;;;2.42;;
65210;SDS011;51794;52.758;55.792;2022-10-13T15:11:50;4.90;;;3.10;;
65210;SDS011;51794;52.758;55.792;2022-10-13T15:14:26;4.68;;;3.05;;
65210;SDS011;51794;52.758;55.792;2022-10-13T15:16:58;3.72;;;3.33;;
65210;SDS011;51794;52.758;55.792;2022-10-13T15:19:32;3.30;;;2.88;;
65210;SDS011;51794;52.758;55.792;2022-10-13T15:22:01;4.90;;;3.17;;
65210;SDS011;51794;52.758;55.792;2022-10-13T15:24:27;3.85;;;3.15;;
65210;SDS011;51794;52.758;55.792;2022-10-13T15:26:53;4.05;;;3.05;;
65210;SDS011;51794;52.758;55.792;2022-10-13T15:29:19;3.53;;;3.10;;
65210;SDS011;51794;52.758;55.792;2022-10-13T15:32:26;3.88;;;3.15;;
65210;SDS011;51794;52.758;55.792;2022-10-13T15:34:52;3.90;;;3.13;;
65210;SDS011;51794;52.758;55.792;2022-10-13T15:37:19;3.38;;;3.08;;
65210;SDS011;51794;52.758;55.792;2022-10-13T15:39:45;3.55;;;3.25;;
65210;SDS011;51794;52.758;55.792;2022-10-13T15:42:11;3.42;;;3.10;;
65210;SDS011;51794;52.758;55.792;2022-10-13T15:44:36;6.15;;;3.38;;
65210;SDS011;51794;52.758;55.792;2022-10-13T15:47:02;3.83;;;3.40;;
65210;SDS011;51794;52.758;55.792;2022-10-13T15:49:28;3.65;;;2.83;;
65210;SDS011;51794;52.758;55.792;2022-10-13T15:51:54;4.55;;;3.15;;
65210;SDS011;51794;52.758;55.792;2022-10-13T15:54:20;3.60;;;3.17;;
65210;SDS011;51794;52.758;55.792;2022-10-13T15:56:46;4.13;;;3.72;;
65210;SDS011;51794;52.758;55.792;2022-10-13T15:59:12;4.10;;;3.70;;
65210;SDS011;51794;52.758;55.792;2022-10-13T16:01:38;3.65;;;3.33;;
65210;SDS011;51794;52.758;55.792;2022-10-13T16:04:04;4.03;;;3.22;;
65210;SDS011;51794;52.758;55.792;2022-10-13T16:06:30;3.95;;;3.33;;
65210;SDS011;51794;52.758;55.792;2022-10-13T16:08:58;5.05;;;3.40;;
65210;SDS011;51794;52.758;55.792;2022-10-13T16:11:24;4.05;;;3.55;;
65210;SDS011;51794;52.758;55.792;2022-10-13T16:13:51;3.75;;;3.40;;
65210;SDS011;51794;52.758;55.792;2022-10-13T16:16:17;4.88;;;3.85;;
65210;SDS011;51794;52.758;55.792;2022-10-13T16:18:43;4.70;;;4.07;;
65210;SDS011;51794;52.758;55.792;2022-10-13T16:21:10;4.60;;;4.20;;
65210;SDS011;51794;52.758;55.792;2022-10-13T16:23:37;4.18;;;3.78;;
65210;SDS011;51794;52.758;55.792;2022-10-13T16:26:06;4.53;;;4.13;;